createdAt,value
2022-11-05T00:03:45.634Z,53.35
2022-11-05T00:06:49.113Z,49.67
2022-11-05T00:09:35.113Z,52.17
2022-11-05T00:12:38.366Z,46.75
2022-11-05T00:15:41.737Z,48.72
2022-11-05T00:18:26.738Z,52.05
2022-11-05T00:21:30.391Z,49.05
2022-11-05T00:27:20.478Z,45.95
2022-11-05T00:30:06.972Z,48.22
2022-11-05T00:32:52.930Z,46.38
2022-11-05T00:35:37.946Z,47.83
2022-11-05T00:38:23.517Z,45.75
2022-11-05T00:41:08.474Z,48.95
2022-11-05T00:44:12.068Z,46.45
2022-11-05T00:50:01.703Z,45.90
2022-11-05T00:52:55.205Z,45.65
2022-11-05T00:55:42.628Z,41.28
2022-11-05T00:58:28.542Z,45.90
2022-11-05T01:01:14.375Z,51.08
2022-11-05T01:03:59.002Z,49.90
2022-11-05T01:06:44.389Z,47.30
2022-11-05T01:09:28.944Z,47.60
2022-11-05T01:12:14.011Z,51.25
2022-11-05T01:15:00.285Z,51.42
2022-11-05T01:17:45.058Z,51.22
2022-11-05T01:20:30.475Z,49.55
2022-11-05T01:23:16.470Z,45.92
2022-11-05T01:26:01.530Z,46.72
2022-11-05T01:28:51.306Z,45.72
2022-11-05T01:31:36.025Z,47.25
2022-11-05T01:34:21.008Z,47.17
2022-11-05T01:37:06.047Z,46.42
2022-11-05T01:39:51.032Z,51.85
2022-11-05T01:42:35.983Z,51.33
2022-11-05T01:45:26.829Z,47.28
2022-11-05T01:48:32.545Z,50.05
2022-11-05T01:51:21.195Z,47.47
2022-11-05T01:54:10.831Z,48.75
2022-11-05T01:57:00.976Z,50.55
2022-11-05T01:59:54.015Z,47.03
2022-11-05T02:02:39.403Z,50.13
2022-11-05T02:05:28.059Z,54.13
2022-11-05T02:08:24.337Z,46.42
2022-11-05T02:11:12.939Z,47.88
2022-11-05T02:13:57.658Z,43.90
2022-11-05T02:16:54.898Z,49.80
2022-11-05T02:22:58.452Z,42.50
2022-11-05T02:26:04.940Z,48.20
2022-11-05T02:28:49.478Z,47.97
2022-11-05T02:32:03.351Z,51.17
2022-11-05T02:34:58.255Z,49.25
2022-11-05T02:37:53.756Z,46.47
2022-11-05T02:40:53.906Z,49.20
2022-11-05T02:43:44.641Z,51.22
2022-11-05T02:46:53.061Z,52.20
2022-11-05T02:49:37.836Z,47.10
2022-11-05T02:55:39.684Z,43.10
2022-11-05T02:58:28.512Z,45.85
2022-11-05T03:01:13.825Z,45.10
2022-11-05T03:04:05.794Z,45.25
2022-11-05T03:06:57.088Z,43.92
2022-11-05T03:09:49.367Z,43.20
2022-11-05T03:12:57.935Z,42.15
2022-11-05T03:15:54.973Z,50.42
2022-11-05T03:18:45.576Z,49.25
2022-11-05T03:21:45.837Z,43.47
2022-11-05T03:24:33.870Z,50.53
2022-11-05T03:27:26.698Z,50.72
2022-11-05T03:30:13.354Z,50.53
2022-11-05T03:33:02.767Z,45.10
2022-11-05T03:35:55.761Z,49.83
2022-11-05T03:38:43.511Z,46.67
2022-11-05T03:41:29.374Z,40.13
2022-11-05T03:44:21.381Z,46.30
2022-11-05T03:47:12.203Z,45.25
2022-11-05T03:50:12.430Z,47.60
2022-11-05T03:53:03.828Z,46.38
2022-11-05T03:56:23.210Z,45.42
2022-11-05T03:59:10.237Z,51.17
2022-11-05T04:01:55.787Z,47.70
2022-11-05T04:04:41.144Z,54.10
2022-11-05T04:07:44.403Z,50.22
2022-11-05T04:10:47.297Z,54.83
2022-11-05T04:13:32.876Z,51.58
2022-11-05T04:16:36.381Z,56.08
2022-11-05T04:22:47.042Z,52.28
2022-11-05T04:25:32.151Z,55.00
2022-11-05T04:28:17.217Z,51.53
2022-11-05T04:31:01.777Z,53.72
2022-11-05T04:33:46.660Z,54.08
2022-11-05T04:36:31.646Z,54.28
2022-11-05T04:39:17.625Z,54.97
2022-11-05T04:42:02.600Z,51.70
2022-11-05T04:44:47.643Z,54.10
2022-11-05T04:47:32.585Z,50.10
2022-11-05T04:50:17.783Z,46.80
2022-11-05T04:53:02.766Z,51.00
2022-11-05T04:55:47.528Z,46.80
2022-11-05T04:58:32.313Z,52.58
2022-11-05T05:04:03.418Z,49.58
2022-11-05T05:06:48.282Z,49.78
2022-11-05T05:09:33.307Z,42.88
2022-11-05T05:12:18.274Z,45.80
2022-11-05T05:15:04.532Z,46.50
2022-11-05T05:17:51.193Z,46.92
2022-11-05T05:20:54.403Z,52.53
2022-11-05T05:26:23.809Z,42.28
2022-11-05T05:29:10.240Z,54.20
2022-11-05T05:31:54.793Z,51.75
2022-11-05T05:34:39.930Z,50.83
2022-11-05T05:37:24.849Z,44.30
2022-11-05T05:40:10.569Z,49.05
2022-11-05T05:42:55.560Z,48.30
2022-11-05T05:45:40.453Z,51.17
2022-11-05T05:48:25.471Z,47.08
2022-11-05T05:51:11.260Z,47.67
2022-11-05T05:53:56.267Z,50.05
2022-11-05T05:56:45.147Z,48.20
2022-11-05T05:59:29.919Z,50.15
2022-11-05T06:02:15.204Z,57.58
2022-11-05T06:04:59.852Z,53.85
2022-11-05T06:07:44.916Z,56.35
2022-11-05T06:10:29.889Z,53.30
2022-11-05T06:13:14.785Z,64.65
2022-11-05T06:16:09.467Z,59.53
2022-11-05T06:18:54.079Z,62.00
2022-11-05T06:21:38.969Z,62.55
2022-11-05T06:24:24.122Z,64.63
2022-11-05T06:27:08.933Z,60.33
2022-11-05T06:29:54.028Z,65.55
2022-11-05T06:32:38.947Z,67.45
2022-11-05T06:35:23.949Z,69.05
2022-11-05T06:38:08.834Z,68.13
2022-11-05T06:40:53.382Z,68.95
2022-11-05T06:43:38.441Z,68.85
2022-11-05T06:46:23.166Z,63.03
2022-11-05T06:49:08.216Z,70.75
2022-11-05T06:51:53.235Z,67.85
2022-11-05T06:54:38.562Z,69.10
2022-11-05T06:57:23.280Z,69.78
2022-11-05T07:00:08.697Z,63.70
2022-11-05T07:02:55.260Z,64.55
2022-11-05T07:05:45.774Z,66.88
2022-11-05T07:08:32.131Z,65.10
2022-11-05T07:11:17.696Z,63.65
2022-11-05T07:14:02.355Z,67.25
2022-11-05T07:16:47.276Z,69.30
2022-11-05T07:19:32.344Z,67.07
2022-11-05T07:22:17.192Z,65.13
2022-11-05T07:27:46.394Z,67.10
2022-11-05T07:30:32.923Z,65.82
2022-11-05T07:33:17.428Z,73.53
2022-11-05T07:36:02.616Z,60.22
2022-11-05T07:38:47.595Z,61.42
2022-11-05T07:41:32.665Z,61.75
2022-11-05T07:44:17.536Z,59.92
2022-11-05T07:47:02.354Z,61.55
2022-11-05T07:49:47.287Z,57.70
2022-11-05T07:52:32.739Z,59.05
2022-11-05T07:55:19.317Z,58.28
2022-11-05T07:58:03.980Z,66.57
2022-11-05T08:00:49.013Z,64.25
2022-11-05T08:03:34.405Z,61.80
2022-11-05T08:06:19.292Z,58.50
2022-11-05T08:09:04.333Z,64.05
2022-11-05T08:11:52.827Z,54.42
2022-11-05T08:14:37.720Z,52.95
2022-11-05T08:17:22.779Z,53.30
2022-11-05T08:20:08.494Z,54.60
2022-11-05T08:22:54.240Z,53.30
2022-11-05T08:25:39.675Z,51.50
2022-11-05T08:28:25.738Z,54.00
2022-11-05T08:31:10.544Z,55.70
2022-11-05T08:34:02.189Z,57.17
2022-11-05T08:36:47.447Z,52.95
2022-11-05T08:39:32.573Z,51.92
2022-11-05T08:42:17.908Z,53.75
2022-11-05T08:45:03.301Z,54.13
2022-11-05T08:47:48.045Z,57.65
2022-11-05T08:50:33.786Z,58.20
2022-11-05T08:53:18.713Z,57.58
2022-11-05T08:56:03.627Z,56.55
2022-11-05T08:58:49.125Z,50.88
2022-11-05T09:01:34.377Z,50.70
2022-11-05T09:04:19.861Z,60.38
2022-11-05T09:07:04.489Z,68.30
2022-11-05T09:09:49.427Z,60.00
2022-11-05T09:12:34.491Z,61.40
2022-11-05T09:15:19.578Z,61.28
2022-11-05T09:18:07.628Z,58.67
2022-11-05T09:20:52.441Z,56.88
2022-11-05T09:23:37.259Z,50.63
2022-11-05T09:26:22.343Z,49.95
2022-11-05T09:29:11.653Z,49.25
2022-11-05T09:31:58.941Z,53.33
2022-11-05T09:34:44.367Z,54.78
2022-11-05T09:37:29.159Z,52.47
2022-11-05T09:40:17.551Z,46.55
2022-11-05T09:43:03.871Z,50.75
2022-11-05T09:45:53.419Z,47.95
2022-11-05T09:48:39.534Z,44.95
2022-11-05T09:51:24.488Z,51.88
2022-11-05T09:54:11.415Z,43.35
2022-11-05T09:56:55.976Z,41.30
2022-11-05T10:00:08.906Z,44.03
2022-11-05T10:03:13.256Z,47.38
2022-11-05T10:06:07.786Z,45.80
2022-11-05T10:09:01.290Z,41.53
2022-11-05T10:12:04.116Z,36.65
2022-11-05T10:15:49.550Z,39.95
2022-11-05T10:18:38.799Z,40.97
2022-11-05T10:21:44.314Z,48.83
2022-11-05T10:24:29.328Z,46.38
2022-11-05T10:27:24.823Z,43.20
2022-11-05T10:30:14.675Z,46.65
2022-11-05T10:33:02.582Z,39.13
2022-11-05T10:35:50.571Z,44.00
2022-11-05T10:38:35.676Z,37.55
2022-11-05T10:41:41.893Z,39.28
2022-11-05T10:44:37.095Z,36.58
2022-11-05T10:47:27.988Z,36.95
2022-11-05T10:50:33.594Z,37.38
2022-11-05T10:53:22.784Z,36.45
2022-11-05T10:56:28.010Z,35.67
2022-11-05T10:59:27.753Z,36.67
2022-11-05T11:02:22.406Z,41.53
2022-11-05T11:05:10.329Z,38.05
2022-11-05T11:08:12.852Z,38.60
2022-11-05T11:11:01.612Z,35.22
2022-11-05T11:14:09.352Z,32.97
2022-11-05T11:16:56.990Z,40.63
2022-11-05T11:19:41.633Z,35.90
2022-11-05T11:22:26.402Z,36.35
2022-11-05T11:25:24.361Z,36.33
2022-11-05T11:28:17.896Z,40.88
2022-11-05T11:31:20.811Z,38.28
2022-11-05T11:34:12.233Z,39.90
2022-11-05T11:37:12.919Z,41.78
2022-11-05T11:40:12.391Z,39.42
2022-11-05T11:43:00.870Z,37.13
2022-11-05T11:45:54.288Z,38.22
2022-11-05T11:48:40.561Z,45.15
2022-11-05T11:51:30.149Z,50.53
2022-11-05T11:54:20.621Z,42.08
2022-11-05T11:57:27.636Z,38.05
2022-11-05T12:00:13.759Z,36.60
2022-11-05T12:03:08.689Z,40.72
2022-11-05T12:06:27.804Z,33.47
2022-11-05T12:09:27.991Z,42.53
2022-11-05T12:12:16.344Z,41.65
2022-11-05T12:15:24.509Z,43.50
2022-11-05T12:18:31.227Z,41.03
2022-11-05T12:21:51.416Z,58.63
2022-11-05T12:24:36.433Z,45.63
2022-11-05T12:27:36.291Z,42.00
2022-11-05T12:30:21.623Z,36.55
2022-11-05T12:33:25.354Z,43.17
2022-11-05T12:36:13.971Z,38.25
2022-11-05T12:39:05.040Z,52.65
2022-11-05T12:41:52.726Z,42.50
2022-11-05T12:44:43.692Z,44.13
2022-11-05T12:47:28.543Z,55.33
2022-11-05T12:50:50.515Z,57.50
2022-11-05T12:53:53.060Z,47.80
2022-11-05T12:57:02.934Z,46.50
2022-11-05T13:00:12.485Z,47.80
2022-11-05T13:03:15.916Z,44.67
2022-11-05T13:06:07.136Z,43.95
2022-11-05T13:09:01.748Z,48.55
2022-11-05T13:12:04.513Z,44.60
2022-11-05T13:15:21.304Z,38.08
2022-11-05T13:18:13.866Z,40.97
2022-11-05T13:21:04.752Z,40.42
2022-11-05T13:24:18.231Z,45.70
2022-11-05T13:27:17.733Z,44.10
2022-11-05T13:30:05.455Z,45.13
2022-11-05T13:33:03.519Z,53.55
2022-11-05T13:36:11.381Z,50.38
2022-11-05T13:39:08.554Z,50.55
2022-11-05T13:42:05.434Z,51.58
2022-11-05T13:45:24.089Z,49.53
2022-11-05T13:48:24.220Z,47.72
2022-11-05T13:51:27.652Z,51.15
2022-11-05T13:54:34.315Z,47.97
2022-11-05T13:57:33.433Z,49.28
2022-11-05T14:00:29.379Z,46.60
2022-11-05T14:03:19.909Z,52.33
2022-11-05T14:06:07.799Z,67.07
2022-11-05T14:08:58.148Z,54.35
2022-11-05T14:11:49.989Z,50.63
2022-11-05T14:14:44.785Z,46.28
2022-11-05T14:17:54.622Z,47.90
2022-11-05T14:23:38.446Z,48.92
2022-11-05T14:26:30.841Z,39.90
2022-11-05T14:29:24.334Z,45.13
2022-11-05T14:32:18.281Z,47.85
2022-11-05T14:35:15.083Z,46.28
2022-11-05T14:37:59.871Z,53.90
2022-11-05T14:40:45.682Z,49.75
2022-11-05T14:43:35.576Z,59.33
2022-11-05T14:46:20.511Z,49.45
2022-11-05T14:49:09.491Z,56.03
2022-11-05T14:51:57.942Z,50.88
2022-11-05T14:54:48.385Z,51.72
2022-11-05T14:57:42.319Z,54.60
2022-11-05T15:00:35.898Z,61.33
2022-11-05T15:03:45.951Z,57.45
2022-11-05T15:06:36.330Z,57.85
2022-11-05T15:09:28.951Z,62.33
2022-11-05T15:12:52.512Z,61.30
2022-11-05T15:15:43.875Z,56.40
2022-11-05T15:18:34.486Z,63.83
2022-11-05T15:21:20.890Z,66.18
2022-11-05T15:24:07.804Z,62.90
2022-11-05T15:27:00.655Z,74.75
2022-11-05T15:29:45.642Z,70.57
2022-11-05T15:32:35.896Z,68.50
2022-11-05T15:35:28.920Z,75.25
2022-11-05T15:38:29.772Z,70.22
2022-11-05T15:41:23.684Z,73.55
2022-11-05T15:44:27.569Z,71.70
2022-11-05T15:47:18.217Z,79.13
2022-11-05T15:53:20.636Z,75.72
2022-11-05T15:56:09.918Z,82.95
2022-11-05T15:59:00.352Z,85.47
2022-11-05T16:01:48.347Z,73.95
2022-11-05T16:04:34.358Z,85.72
2022-11-05T16:07:19.276Z,80.55
2022-11-05T16:10:10.032Z,88.30
2022-11-05T16:13:37.106Z,84.40
2022-11-05T16:16:33.221Z,90.20
2022-11-05T16:19:39.821Z,89.80
2022-11-05T16:22:42.967Z,87.65
2022-11-05T16:25:39.559Z,91.53
2022-11-05T16:28:29.508Z,89.50
2022-11-05T16:31:14.375Z,90.20
2022-11-05T16:33:59.576Z,89.68
2022-11-05T16:36:44.428Z,91.15
2022-11-05T16:39:29.377Z,102.95
2022-11-05T16:42:36.544Z,91.55
2022-11-05T16:45:24.480Z,96.40
2022-11-05T16:48:11.965Z,90.38
2022-11-05T16:50:57.128Z,95.13
2022-11-05T16:53:42.367Z,95.85
2022-11-05T16:56:28.147Z,101.07
2022-11-05T16:59:13.168Z,114.35
2022-11-05T17:01:58.512Z,111.93
2022-11-05T17:04:43.345Z,109.43
2022-11-05T17:10:13.303Z,100.15
2022-11-05T17:12:57.842Z,102.97
2022-11-05T17:15:44.975Z,109.13
2022-11-05T17:18:29.882Z,101.38
2022-11-05T17:21:14.835Z,101.20
2022-11-05T17:23:59.512Z,110.97
2022-11-05T17:26:44.501Z,114.22
2022-11-05T17:29:29.445Z,118.43
2022-11-05T17:32:14.272Z,111.55
2022-11-05T17:34:59.297Z,106.20
2022-11-05T17:37:44.462Z,106.28
2022-11-05T17:40:29.759Z,100.80
2022-11-05T17:43:15.293Z,104.82
2022-11-05T17:46:04.565Z,102.35
2022-11-05T17:48:49.427Z,102.03
2022-11-05T17:51:34.441Z,98.75
2022-11-05T17:54:19.351Z,101.57
2022-11-05T17:57:05.148Z,105.55
2022-11-05T17:59:49.594Z,108.28
2022-11-05T18:02:34.872Z,96.57
2022-11-05T18:05:21.208Z,92.50
2022-11-05T18:08:07.026Z,95.50
2022-11-05T18:10:52.260Z,97.93
2022-11-05T18:13:37.102Z,95.07
2022-11-05T18:16:22.250Z,90.70
2022-11-05T18:19:07.243Z,95.78
2022-11-05T18:21:53.146Z,95.63
2022-11-05T18:24:38.176Z,89.63
2022-11-05T18:27:27.047Z,90.00
2022-11-05T18:30:14.667Z,79.53
2022-11-05T18:32:59.520Z,79.43
2022-11-05T18:35:44.833Z,78.22
2022-11-05T18:38:29.650Z,80.53
2022-11-05T18:41:15.957Z,85.20
2022-11-05T18:44:02.561Z,80.57
2022-11-05T18:47:03.938Z,77.55
2022-11-05T18:49:48.636Z,83.47
2022-11-05T18:52:33.746Z,77.55
2022-11-05T18:55:18.959Z,72.88
2022-11-05T18:58:03.554Z,73.32
2022-11-05T19:00:48.539Z,71.72
2022-11-05T19:03:33.549Z,70.88
2022-11-05T19:06:18.404Z,76.65
2022-11-05T19:09:04.857Z,71.38
2022-11-05T19:11:50.315Z,79.53
2022-11-05T19:14:35.517Z,74.63
2022-11-05T19:17:20.247Z,70.28
2022-11-05T19:20:06.611Z,71.63
2022-11-05T19:22:51.334Z,76.57
2022-11-05T19:25:37.348Z,72.25
2022-11-05T19:28:22.812Z,70.53
2022-11-05T19:31:14.284Z,66.40
2022-11-05T19:34:02.407Z,73.03
2022-11-05T19:36:47.130Z,69.18
2022-11-05T19:39:32.255Z,67.88
2022-11-05T19:42:17.017Z,72.30
2022-11-05T19:45:23.066Z,68.40
2022-11-05T19:48:07.628Z,70.65
2022-11-05T19:50:52.906Z,64.15
2022-11-05T19:53:38.466Z,67.47
2022-11-05T19:56:26.184Z,71.53
2022-11-05T19:59:11.423Z,71.32
2022-11-05T20:01:56.212Z,64.75
2022-11-05T20:04:41.087Z,63.60
2022-11-05T20:07:26.743Z,61.22
2022-11-05T20:10:11.360Z,66.90
2022-11-05T20:12:56.322Z,67.22
2022-11-05T20:15:41.262Z,64.63
2022-11-05T20:18:27.133Z,65.32
2022-11-05T20:21:11.641Z,58.63
2022-11-05T20:23:57.066Z,56.00
2022-11-05T20:26:42.291Z,59.35
2022-11-05T20:29:34.732Z,60.15
2022-11-05T20:32:20.115Z,58.80
2022-11-05T20:35:05.410Z,55.63
2022-11-05T20:37:53.996Z,55.03
2022-11-05T20:40:39.293Z,55.60
2022-11-05T20:43:29.150Z,56.08
2022-11-05T20:46:17.583Z,47.97
2022-11-05T20:49:02.757Z,51.03
2022-11-05T20:51:47.547Z,54.13
2022-11-05T20:54:32.473Z,53.00
2022-11-05T20:57:17.432Z,50.67
2022-11-05T21:00:06.467Z,53.55
2022-11-05T21:02:51.338Z,52.00
2022-11-05T21:05:36.026Z,53.08
2022-11-05T21:08:21.857Z,51.42
2022-11-05T21:11:06.704Z,49.78
2022-11-05T21:13:51.532Z,48.83
2022-11-05T21:16:36.415Z,51.70
2022-11-05T21:19:23.328Z,49.85
2022-11-05T21:22:07.937Z,46.65
2022-11-05T21:24:52.834Z,44.05
2022-11-05T21:27:43.292Z,45.72
2022-11-05T21:30:28.286Z,49.55
2022-11-05T21:33:14.835Z,42.55
2022-11-05T21:36:08.929Z,45.45
2022-11-05T21:38:54.085Z,49.95
2022-11-05T21:41:39.320Z,47.38
2022-11-05T21:44:24.445Z,48.53
2022-11-05T21:47:09.341Z,42.88
2022-11-05T21:49:54.174Z,46.67
2022-11-05T21:52:57.974Z,37.58
2022-11-05T21:56:01.411Z,43.53
2022-11-05T21:59:04.873Z,45.95
2022-11-05T22:01:50.563Z,44.03
2022-11-05T22:04:38.103Z,39.80
2022-11-05T22:07:32.037Z,37.90
2022-11-05T22:10:19.066Z,41.60
2022-11-05T22:13:03.755Z,40.17
2022-11-05T22:15:55.938Z,42.03
2022-11-05T22:18:40.800Z,41.63
2022-11-05T22:21:25.722Z,40.65
2022-11-05T22:24:10.898Z,40.85
2022-11-05T22:26:55.969Z,33.80
2022-11-05T22:29:41.004Z,36.88
2022-11-05T22:32:26.104Z,33.42
2022-11-05T22:35:10.769Z,34.08
2022-11-05T22:37:55.636Z,35.83
2022-11-05T22:40:40.834Z,37.28
2022-11-05T22:43:25.920Z,37.15
2022-11-05T22:46:14.212Z,33.33
2022-11-05T22:48:59.704Z,33.05
2022-11-05T22:51:45.050Z,30.85
2022-11-05T22:54:33.853Z,29.88
2022-11-05T22:57:21.570Z,30.60
2022-11-05T23:00:14.287Z,29.58
2022-11-05T23:02:59.100Z,34.70
2022-11-05T23:05:43.916Z,31.52
2022-11-05T23:08:47.348Z,29.13
2022-11-05T23:11:34.947Z,27.23
2022-11-05T23:14:20.228Z,26.40
2022-11-05T23:17:23.088Z,29.25
2022-11-05T23:20:34.517Z,25.30
2022-11-05T23:23:38.114Z,26.17
2022-11-05T23:29:26.730Z,22.42
2022-11-05T23:32:23.755Z,23.05
2022-11-05T23:35:08.865Z,21.10
2022-11-05T23:38:12.554Z,22.65
2022-11-05T23:41:20.173Z,19.92
2022-11-05T23:44:40.243Z,19.85
2022-11-05T23:47:43.447Z,18.88
2022-11-05T23:50:33.105Z,20.52
2022-11-05T23:53:20.561Z,20.75
2022-11-05T23:56:10.495Z,19.52
2022-11-05T23:58:55.045Z,18.50
